createdAt,value
2023-04-18T00:01:45.905Z,14.27
2023-04-18T00:04:13.974Z,14.50
2023-04-18T00:06:41.184Z,14.17
2023-04-18T00:09:08.066Z,14.43
2023-04-18T00:11:35.102Z,14.07
2023-04-18T00:14:03.198Z,13.90
2023-04-18T00:16:30.215Z,13.83
2023-04-18T00:18:57.492Z,13.37
2023-04-18T00:21:26.040Z,12.97
2023-04-18T00:23:52.801Z,12.53
2023-04-18T00:26:19.733Z,13.53
2023-04-18T00:28:46.485Z,11.97
2023-04-18T00:31:13.257Z,12.37
2023-04-18T00:33:40.334Z,12.20
2023-04-18T00:36:07.342Z,12.17
2023-04-18T00:38:34.116Z,10.60
2023-04-18T00:41:00.853Z,11.17
2023-04-18T00:43:28.092Z,11.37
2023-04-18T00:45:56.955Z,10.60
2023-04-18T00:48:24.374Z,10.47
2023-04-18T00:50:51.111Z,10.53
2023-04-18T00:53:17.950Z,11.37
2023-04-18T00:55:44.974Z,10.67
2023-04-18T00:58:12.112Z,10.37
2023-04-18T01:00:38.861Z,9.80
2023-04-18T01:03:08.364Z,11.00
2023-04-18T01:05:36.256Z,10.60
2023-04-18T01:08:03.180Z,10.40
2023-04-18T01:10:31.084Z,9.47
2023-04-18T01:13:30.207Z,10.73
2023-04-18T01:15:57.046Z,10.20
2023-04-18T01:18:24.322Z,9.57
2023-04-18T01:20:53.252Z,10.90
2023-04-18T01:23:21.198Z,10.43
2023-04-18T01:25:51.906Z,9.47
2023-04-18T01:28:22.729Z,9.90
2023-04-18T01:30:49.662Z,10.83
2023-04-18T01:33:16.450Z,10.73
2023-04-18T01:35:43.274Z,10.47
2023-04-18T01:38:09.989Z,10.03
2023-04-18T01:40:36.782Z,9.67
2023-04-18T01:43:03.510Z,10.20
2023-04-18T01:45:30.239Z,9.93
2023-04-18T01:47:57.055Z,11.10
2023-04-18T01:50:23.876Z,9.17
2023-04-18T01:52:50.610Z,9.13
2023-04-18T01:55:17.467Z,9.70
2023-04-18T01:57:44.453Z,9.83
2023-04-18T02:00:12.100Z,9.87
2023-04-18T02:02:39.040Z,10.00
2023-04-18T02:05:06.548Z,9.43
2023-04-18T02:07:33.329Z,9.23
2023-04-18T02:10:00.183Z,9.03
2023-04-18T02:12:26.971Z,9.30
2023-04-18T02:14:53.766Z,8.97
2023-04-18T02:17:23.828Z,9.10
2023-04-18T02:19:51.747Z,8.03
2023-04-18T02:22:18.808Z,9.07
2023-04-18T02:24:45.698Z,9.50
2023-04-18T02:27:12.901Z,9.73
2023-04-18T02:29:39.794Z,10.00
2023-04-18T02:32:07.010Z,9.03
2023-04-18T02:34:33.859Z,9.67
2023-04-18T02:37:00.666Z,10.43
2023-04-18T02:39:27.531Z,9.13
2023-04-18T02:41:54.313Z,9.43
2023-04-18T02:44:21.048Z,9.47
2023-04-18T02:46:47.907Z,9.20
2023-04-18T02:49:14.657Z,9.07
2023-04-18T02:51:41.410Z,8.30
2023-04-18T02:54:08.300Z,7.83
2023-04-18T02:56:39.836Z,9.30
2023-04-18T02:59:07.305Z,7.97
2023-04-18T03:01:34.596Z,8.60
2023-04-18T03:04:01.403Z,8.03
2023-04-18T03:06:28.109Z,8.90
2023-04-18T03:08:55.926Z,8.70
2023-04-18T03:11:22.830Z,8.60
2023-04-18T03:13:49.919Z,8.50
2023-04-18T03:16:17.498Z,8.53
2023-04-18T03:18:44.443Z,8.57
2023-04-18T03:21:11.716Z,9.27
2023-04-18T03:23:38.506Z,8.97
2023-04-18T03:26:12.553Z,8.90
2023-04-18T03:28:40.139Z,8.60
2023-04-18T03:31:07.197Z,8.80
2023-04-18T03:33:33.948Z,9.03
2023-04-18T03:36:01.040Z,9.13
2023-04-18T03:38:27.878Z,8.63
2023-04-18T03:40:54.705Z,8.80
2023-04-18T03:43:21.457Z,9.27
2023-04-18T03:45:48.659Z,8.40
2023-04-18T03:48:15.507Z,8.67
2023-04-18T03:50:42.312Z,8.30
2023-04-18T03:53:09.104Z,8.33
2023-04-18T03:55:35.997Z,9.33
2023-04-18T03:58:02.745Z,7.93
2023-04-18T04:00:29.842Z,7.20
2023-04-18T04:02:56.950Z,8.47
2023-04-18T04:05:23.924Z,7.90
2023-04-18T04:08:03.121Z,8.40
2023-04-18T04:14:10.425Z,7.67
2023-04-18T04:17:04.674Z,7.87
2023-04-18T04:22:18.444Z,7.50
2023-04-18T04:24:46.755Z,8.10
2023-04-18T04:27:13.693Z,8.43
2023-04-18T04:29:41.158Z,8.27
2023-04-18T04:32:08.063Z,7.23
2023-04-18T04:34:35.696Z,7.90
2023-04-18T04:37:03.256Z,7.33
2023-04-18T04:39:29.977Z,8.10
2023-04-18T04:41:57.590Z,7.80
2023-04-18T04:44:26.698Z,8.07
2023-04-18T04:46:54.351Z,8.67
2023-04-18T04:49:21.881Z,9.50
2023-04-18T04:51:48.781Z,9.43
2023-04-18T04:54:16.134Z,8.53
2023-04-18T04:56:43.116Z,9.53
2023-04-18T04:59:09.873Z,8.83
2023-04-18T05:01:36.757Z,8.70
2023-04-18T05:04:03.822Z,8.13
2023-04-18T05:06:31.226Z,8.33
2023-04-18T05:08:59.491Z,9.00
2023-04-18T05:11:26.681Z,8.20
2023-04-18T05:13:54.690Z,9.73
2023-04-18T05:16:21.654Z,9.67
2023-04-18T05:18:48.418Z,8.13
2023-04-18T05:21:15.172Z,8.60
2023-04-18T05:23:41.919Z,9.33
2023-04-18T05:26:08.704Z,9.87
2023-04-18T05:28:35.466Z,8.63
2023-04-18T05:31:02.302Z,8.67
2023-04-18T05:33:32.366Z,9.93
2023-04-18T05:35:59.434Z,8.97
2023-04-18T05:38:26.366Z,10.00
2023-04-18T05:40:55.423Z,11.30
2023-04-18T05:43:22.931Z,10.17
2023-04-18T05:45:52.174Z,10.83
2023-04-18T05:48:19.297Z,10.73
2023-04-18T05:50:46.074Z,10.83
2023-04-18T05:53:12.910Z,11.00
2023-04-18T05:55:40.866Z,11.57
2023-04-18T05:58:07.813Z,11.87
2023-04-18T06:00:34.987Z,10.97
2023-04-18T06:03:01.956Z,11.17
2023-04-18T06:05:29.463Z,11.07
2023-04-18T06:07:56.366Z,10.67
2023-04-18T06:10:23.170Z,11.03
2023-04-18T06:12:49.918Z,10.57
2023-04-18T06:15:16.837Z,10.90
2023-04-18T06:17:44.576Z,12.47
2023-04-18T06:20:11.537Z,11.50
2023-04-18T06:22:38.274Z,11.03
2023-04-18T06:25:05.797Z,10.73
2023-04-18T06:27:32.613Z,10.87
2023-04-18T06:29:59.444Z,10.83
2023-04-18T06:32:26.422Z,11.17
2023-04-18T06:34:53.294Z,11.93
2023-04-18T06:37:20.654Z,12.10
2023-04-18T06:39:47.432Z,11.13
2023-04-18T06:42:14.162Z,11.03
2023-04-18T06:44:42.911Z,11.20
2023-04-18T06:47:11.078Z,11.53
2023-04-18T06:49:37.820Z,10.87
2023-04-18T06:52:04.686Z,11.33
2023-04-18T06:54:31.453Z,12.00
2023-04-18T06:56:58.853Z,12.67
2023-04-18T06:59:25.642Z,12.03
2023-04-18T07:01:52.560Z,11.00
2023-04-18T07:04:19.604Z,10.83
2023-04-18T07:06:46.642Z,11.37
2023-04-18T07:09:13.470Z,11.73
2023-04-18T07:11:40.622Z,11.63
2023-04-18T07:14:07.507Z,11.00
2023-04-18T07:16:34.820Z,11.43
2023-04-18T07:19:01.594Z,11.60
2023-04-18T07:21:28.406Z,13.27
2023-04-18T07:23:55.283Z,12.27
2023-04-18T07:26:22.298Z,12.13
2023-04-18T07:28:49.591Z,12.27
2023-04-18T07:31:16.522Z,12.63
2023-04-18T07:33:43.519Z,12.30
2023-04-18T07:36:10.835Z,14.03
2023-04-18T07:38:37.673Z,13.40
2023-04-18T07:41:04.485Z,14.07
2023-04-18T07:43:31.522Z,13.90
2023-04-18T07:45:58.334Z,12.73
2023-04-18T07:48:25.328Z,12.60
2023-04-18T07:50:52.490Z,13.67
2023-04-18T07:53:19.212Z,12.77
2023-04-18T07:55:46.542Z,12.27
2023-04-18T07:58:13.505Z,12.20
2023-04-18T08:00:43.718Z,12.43
2023-04-18T08:03:12.532Z,13.17
2023-04-18T08:05:41.758Z,11.57
2023-04-18T08:08:10.981Z,11.70
2023-04-18T08:10:38.098Z,11.43
2023-04-18T08:13:06.334Z,11.67
2023-04-18T08:15:33.127Z,10.67
2023-04-18T08:18:00.652Z,11.87
2023-04-18T08:20:27.857Z,10.70
2023-04-18T08:23:05.227Z,10.23
2023-04-18T08:25:36.167Z,10.40
2023-04-18T08:28:03.874Z,10.13
2023-04-18T08:30:31.025Z,10.20
2023-04-18T08:32:58.015Z,10.00
2023-04-18T08:35:24.839Z,10.30
2023-04-18T08:37:51.579Z,10.60
2023-04-18T08:40:19.025Z,10.20
2023-04-18T08:42:45.771Z,10.33
2023-04-18T08:45:16.241Z,9.97
2023-04-18T08:47:43.114Z,10.13
2023-04-18T08:50:11.337Z,9.67
2023-04-18T08:52:44.887Z,10.37
2023-04-18T08:55:11.604Z,9.70
2023-04-18T08:57:38.437Z,8.27
2023-04-18T09:00:09.932Z,9.40
2023-04-18T09:02:45.021Z,9.20
2023-04-18T09:05:15.346Z,9.03
2023-04-18T09:07:43.052Z,9.63
2023-04-18T09:10:10.731Z,8.70
2023-04-18T09:12:50.618Z,8.47
2023-04-18T09:15:23.125Z,8.93
2023-04-18T09:17:56.032Z,8.07
2023-04-18T09:20:43.659Z,8.80
2023-04-18T09:23:16.115Z,7.80
2023-04-18T09:25:48.029Z,8.67
2023-04-18T09:28:33.098Z,7.87
2023-04-18T09:31:10.120Z,8.13
2023-04-18T09:33:37.955Z,7.43
2023-04-18T09:36:21.139Z,7.40
2023-04-18T09:38:52.480Z,8.27
2023-04-18T09:41:22.396Z,8.47
2023-04-18T09:43:49.333Z,7.37
2023-04-18T09:46:17.729Z,8.43
2023-04-18T09:48:44.697Z,8.60
2023-04-18T09:51:15.703Z,8.33
2023-04-18T09:53:44.833Z,7.87
2023-04-18T09:56:43.734Z,8.30
2023-04-18T09:59:12.673Z,8.60
2023-04-18T10:01:41.075Z,8.60
2023-04-18T10:04:10.315Z,8.47
2023-04-18T10:06:39.788Z,8.27
2023-04-18T10:09:09.672Z,8.60
2023-04-18T10:11:37.047Z,8.37
2023-04-18T10:14:09.507Z,8.63
2023-04-18T10:16:37.928Z,8.40
2023-04-18T10:19:26.417Z,9.23
2023-04-18T10:22:01.611Z,8.80
2023-04-18T10:24:47.848Z,9.23
2023-04-18T10:27:18.781Z,9.27
2023-04-18T10:29:53.567Z,9.03
2023-04-18T10:32:23.522Z,8.87
2023-04-18T10:34:53.291Z,9.30
2023-04-18T10:37:20.216Z,10.37
2023-04-18T10:39:54.153Z,8.77
2023-04-18T10:42:52.578Z,9.20
2023-04-18T10:45:25.050Z,9.27
2023-04-18T10:48:25.817Z,9.10
2023-04-18T10:51:19.766Z,8.90
2023-04-18T10:53:57.463Z,8.77
2023-04-18T10:56:26.035Z,8.67
2023-04-18T10:58:53.828Z,8.07
2023-04-18T11:01:44.548Z,8.50
2023-04-18T11:04:13.983Z,8.23
2023-04-18T11:06:57.138Z,8.70
2023-04-18T11:09:25.005Z,7.70
2023-04-18T11:12:04.272Z,8.30
2023-04-18T11:14:59.321Z,8.40
2023-04-18T11:17:29.544Z,8.10
2023-04-18T11:20:12.853Z,8.80
2023-04-18T11:22:53.401Z,8.87
2023-04-18T11:25:37.178Z,8.43
2023-04-18T11:32:49.092Z,8.30
2023-04-18T11:36:03.167Z,9.27
2023-04-18T11:38:31.139Z,8.90
2023-04-18T11:40:58.197Z,9.23
2023-04-18T11:43:27.884Z,8.67
2023-04-18T11:45:58.146Z,9.10
2023-04-18T11:48:37.784Z,9.63
2023-04-18T11:51:06.536Z,9.80
2023-04-18T11:53:38.753Z,9.40
2023-04-18T11:56:06.330Z,10.00
2023-04-18T11:58:36.195Z,9.53
2023-04-18T12:01:20.999Z,9.40
2023-04-18T12:04:06.610Z,9.17
2023-04-18T12:06:48.281Z,10.83
2023-04-18T12:09:17.327Z,8.67
2023-04-18T12:11:44.335Z,9.20
2023-04-18T12:14:24.211Z,10.50
2023-04-18T12:16:52.063Z,10.43
2023-04-18T12:19:20.805Z,9.17
2023-04-18T12:22:01.988Z,9.47
2023-04-18T12:24:29.293Z,9.80
2023-04-18T12:26:57.813Z,9.50
2023-04-18T12:29:25.917Z,8.87
2023-04-18T12:31:52.996Z,8.27
2023-04-18T12:34:20.245Z,8.87
2023-04-18T12:36:47.320Z,8.90
2023-04-18T12:39:14.105Z,8.43
2023-04-18T12:41:40.949Z,8.23
2023-04-18T12:44:07.762Z,9.37
2023-04-18T12:46:34.630Z,9.27
2023-04-18T12:49:01.516Z,8.87
2023-04-18T12:51:28.486Z,9.03
2023-04-18T12:53:55.456Z,8.27
2023-04-18T12:56:22.317Z,8.30
2023-04-18T12:58:49.520Z,8.00
2023-04-18T13:01:17.073Z,7.87
2023-04-18T13:03:45.594Z,7.90
2023-04-18T13:06:15.849Z,8.50
2023-04-18T13:08:42.873Z,8.47
2023-04-18T13:11:09.630Z,8.87
2023-04-18T13:13:36.569Z,9.40
2023-04-18T13:16:03.501Z,8.27
2023-04-18T13:18:30.292Z,8.47
2023-04-18T13:20:57.038Z,8.80
2023-04-18T13:23:23.792Z,8.40
2023-04-18T13:25:50.888Z,8.00
2023-04-18T13:28:17.634Z,9.00
2023-04-18T13:30:44.438Z,8.43
2023-04-18T13:33:11.284Z,8.63
2023-04-18T13:35:38.058Z,8.07
2023-04-18T13:38:04.832Z,8.93
2023-04-18T13:40:33.430Z,9.20
2023-04-18T13:43:00.249Z,8.30
2023-04-18T13:45:27.350Z,9.03
2023-04-18T13:47:54.317Z,8.63
2023-04-18T13:50:21.394Z,8.47
2023-04-18T13:52:49.287Z,8.47
2023-04-18T13:55:16.182Z,8.37
2023-04-18T13:57:42.918Z,8.40
2023-04-18T14:00:11.147Z,8.90
2023-04-18T14:02:38.047Z,8.73
2023-04-18T14:05:05.677Z,9.00
2023-04-18T14:07:32.533Z,8.77
2023-04-18T14:09:59.397Z,9.03
2023-04-18T14:12:26.350Z,9.40
2023-04-18T14:14:53.240Z,9.17
2023-04-18T14:17:20.041Z,9.27
2023-04-18T14:19:46.817Z,9.20
2023-04-18T14:22:13.567Z,10.27
2023-04-18T14:24:40.397Z,8.97
2023-04-18T14:27:07.188Z,9.23
2023-04-18T14:29:33.960Z,8.90
2023-04-18T14:32:00.774Z,9.63
2023-04-18T14:34:27.561Z,9.60
2023-04-18T14:36:54.400Z,10.77
2023-04-18T14:39:21.616Z,10.13
2023-04-18T14:41:48.475Z,10.77
2023-04-18T14:44:15.351Z,10.93
2023-04-18T14:46:43.015Z,10.80
2023-04-18T14:49:09.824Z,10.80
2023-04-18T14:51:36.594Z,10.70
2023-04-18T14:54:03.491Z,11.00
2023-04-18T14:56:30.370Z,11.40
2023-04-18T14:58:57.145Z,11.60
2023-04-18T15:01:23.925Z,12.33
2023-04-18T15:03:51.366Z,11.60
2023-04-18T15:06:18.330Z,12.87
2023-04-18T15:08:45.650Z,12.97
2023-04-18T15:11:13.105Z,12.17
2023-04-18T15:13:40.270Z,13.20
2023-04-18T15:16:07.731Z,12.57
2023-04-18T15:18:34.574Z,12.07
2023-04-18T15:21:01.400Z,13.47
2023-04-18T15:23:28.422Z,11.20
2023-04-18T15:25:55.327Z,12.03
2023-04-18T15:28:22.238Z,12.07
2023-04-18T15:30:49.013Z,11.47
2023-04-18T15:33:17.494Z,11.23
2023-04-18T15:35:44.702Z,11.33
2023-04-18T15:38:11.929Z,11.60
2023-04-18T15:40:38.739Z,11.83
2023-04-18T15:43:05.939Z,11.37
2023-04-18T15:45:33.472Z,11.00
2023-04-18T15:48:00.316Z,12.27
2023-04-18T15:50:27.126Z,11.40
2023-04-18T15:52:53.932Z,11.43
2023-04-18T15:55:20.809Z,12.10
2023-04-18T15:57:47.686Z,12.13
2023-04-18T16:00:19.548Z,11.30
2023-04-18T16:02:47.131Z,11.97
2023-04-18T16:05:15.113Z,11.17
2023-04-18T16:07:42.602Z,12.43
2023-04-18T16:10:11.283Z,11.27
2023-04-18T16:12:39.605Z,11.27
2023-04-18T16:15:08.943Z,11.07
2023-04-18T16:17:39.072Z,11.50
2023-04-18T16:20:08.418Z,11.00
2023-04-18T16:22:35.686Z,10.67
2023-04-18T16:25:03.187Z,11.27
2023-04-18T16:27:30.199Z,10.03
2023-04-18T16:29:56.970Z,10.03
2023-04-18T16:32:23.690Z,10.07
2023-04-18T16:34:50.542Z,9.93
2023-04-18T16:37:17.354Z,9.93
2023-04-18T16:39:44.103Z,9.43
2023-04-18T16:44:39.243Z,8.87
2023-04-18T16:47:08.128Z,8.93
2023-04-18T16:49:35.072Z,9.57
2023-04-18T16:52:02.102Z,9.17
2023-04-18T16:54:29.199Z,9.10
2023-04-18T16:56:56.885Z,9.20
2023-04-18T16:59:23.834Z,7.93
2023-04-18T17:01:50.683Z,8.27
2023-04-18T17:04:17.646Z,8.27
2023-04-18T17:06:44.706Z,8.60
2023-04-18T17:09:13.577Z,9.13
2023-04-18T17:11:41.865Z,8.53
2023-04-18T17:14:09.334Z,8.97
2023-04-18T17:16:39.314Z,9.23
2023-04-18T17:19:06.530Z,8.73
2023-04-18T17:21:35.158Z,8.63
2023-04-18T17:24:03.954Z,8.20
2023-04-18T17:26:31.670Z,7.53
2023-04-18T17:32:20.358Z,7.67
2023-04-18T17:35:01.887Z,7.50
2023-04-18T17:37:54.222Z,7.07
2023-04-18T17:40:29.002Z,7.73
2023-04-18T17:43:01.224Z,7.80
2023-04-18T17:45:28.991Z,7.50
2023-04-18T17:48:53.765Z,7.83
2023-04-18T17:51:59.400Z,7.90
2023-04-18T17:54:29.556Z,9.17
2023-04-18T17:57:41.481Z,8.77
2023-04-18T18:00:14.863Z,8.20
2023-04-18T18:13:46.750Z,7.60
2023-04-18T18:19:55.602Z,7.10
2023-04-18T18:22:29.922Z,7.80
2023-04-18T18:25:07.185Z,7.27
2023-04-18T18:27:36.699Z,7.43
2023-04-18T18:30:06.484Z,7.30
2023-04-18T18:32:43.282Z,7.30
2023-04-18T18:35:10.445Z,8.03
2023-04-18T18:37:44.127Z,8.13
2023-04-18T18:40:12.797Z,7.77
2023-04-18T18:42:42.642Z,8.17
2023-04-18T18:45:12.323Z,8.87
2023-04-18T18:47:40.644Z,9.07
2023-04-18T19:42:33.663Z,13.93
2023-04-18T19:45:00.470Z,14.13
2023-04-18T19:47:28.029Z,14.53
2023-04-18T19:49:54.798Z,14.57
2023-04-18T19:52:21.541Z,14.63
2023-04-18T19:54:48.341Z,14.30
2023-04-18T19:57:15.157Z,13.23
2023-04-18T19:59:42.016Z,13.23
2023-04-18T20:02:09.081Z,12.13
2023-04-18T20:04:36.697Z,12.83
2023-04-18T20:07:03.758Z,11.80
2023-04-18T20:09:30.553Z,12.40
2023-04-18T20:12:00.431Z,12.30
2023-04-18T20:14:28.802Z,11.90
2023-04-18T20:16:56.649Z,13.20
2023-04-18T20:19:25.751Z,12.70
2023-04-18T20:21:52.815Z,12.63
2023-04-18T20:24:21.117Z,12.63
2023-04-18T20:26:48.029Z,13.33
2023-04-18T20:29:15.029Z,13.13
2023-04-18T20:31:42.429Z,13.13
2023-04-18T20:34:09.889Z,12.27
2023-04-18T20:36:41.509Z,12.23
2023-04-18T20:39:14.609Z,11.90
2023-04-18T20:41:48.595Z,12.57
2023-04-18T20:44:19.071Z,11.60
2023-04-18T20:46:45.966Z,11.07
2023-04-18T20:49:13.137Z,10.77
2023-04-18T20:51:40.095Z,10.57
2023-04-18T20:54:08.904Z,9.60
2023-04-18T20:56:38.864Z,9.70
2023-04-18T20:59:05.691Z,9.00
2023-04-18T21:01:32.882Z,8.70
2023-04-18T21:03:59.892Z,9.37
2023-04-18T21:06:28.277Z,10.30
2023-04-18T21:08:55.062Z,9.97
2023-04-18T21:11:21.976Z,10.03
2023-04-18T21:13:48.893Z,8.60
2023-04-18T21:16:15.820Z,8.77
2023-04-18T21:18:42.642Z,9.47
2023-04-18T21:21:09.492Z,8.07
2023-04-18T21:23:42.997Z,8.23
2023-04-18T21:26:13.651Z,7.27
2023-04-18T21:29:12.710Z,6.80
2023-04-18T21:31:40.432Z,6.67
2023-04-18T21:34:27.143Z,6.80
2023-04-18T21:41:21.890Z,6.30
2023-04-18T21:43:49.377Z,6.47
2023-04-18T21:55:01.035Z,8.73
2023-04-18T22:02:35.043Z,12.10
2023-04-18T22:13:12.809Z,13.43
2023-04-18T22:16:35.753Z,14.30
2023-04-18T22:29:35.143Z,15.83
2023-04-18T23:50:11.919Z,11.10
